createdAt,value
2022-07-25T00:01:30.743Z,3.17
2022-07-25T00:03:57.525Z,3.35
2022-07-25T00:06:24.208Z,3.42
2022-07-25T00:08:50.815Z,2.28
2022-07-25T00:11:17.496Z,2.80
2022-07-25T00:13:44.334Z,2.70
2022-07-25T00:16:11.025Z,2.95
2022-07-25T00:18:37.702Z,2.30
2022-07-25T00:21:04.569Z,3.47
2022-07-25T00:25:43.581Z,3.08
2022-07-25T00:28:10.241Z,2.97
2022-07-25T00:30:36.821Z,2.55
2022-07-25T00:33:03.667Z,3.33
2022-07-25T00:35:30.236Z,3.75
2022-07-25T00:37:56.956Z,3.60
2022-07-25T00:40:23.713Z,3.00
2022-07-25T00:42:51.260Z,3.15
2022-07-25T00:45:17.865Z,2.92
2022-07-25T00:47:44.477Z,3.25
2022-07-25T00:50:11.157Z,3.05
2022-07-25T00:52:37.941Z,3.58
2022-07-25T00:55:05.269Z,2.83
2022-07-25T00:57:31.948Z,3.22
2022-07-25T00:59:58.523Z,3.67
2022-07-25T01:02:25.282Z,3.13
2022-07-25T01:04:52.013Z,3.08
2022-07-25T01:07:18.726Z,3.20
2022-07-25T01:09:45.861Z,3.35
2022-07-25T01:12:12.565Z,3.05
2022-07-25T01:14:39.316Z,3.03
2022-07-25T01:17:06.121Z,3.05
2022-07-25T01:19:32.901Z,3.30
2022-07-25T01:21:59.769Z,2.70
2022-07-25T01:24:26.428Z,3.25
2022-07-25T01:26:53.228Z,2.60
2022-07-25T01:29:19.764Z,2.83
2022-07-25T01:31:46.548Z,2.95
2022-07-25T01:34:13.188Z,2.70
2022-07-25T01:36:39.851Z,3.42
2022-07-25T01:39:06.577Z,3.15
2022-07-25T01:43:48.644Z,2.78
2022-07-25T01:46:15.469Z,3.40
2022-07-25T01:48:42.276Z,3.78
2022-07-25T01:51:10.505Z,3.47
2022-07-25T01:53:37.704Z,4.10
2022-07-25T01:56:08.484Z,3.83
2022-07-25T01:58:36.930Z,3.80
2022-07-25T02:01:03.927Z,4.97
2022-07-25T02:03:30.585Z,4.80
2022-07-25T02:06:02.406Z,4.38
2022-07-25T02:08:29.541Z,3.58
2022-07-25T02:10:57.653Z,4.03
2022-07-25T02:13:24.869Z,4.22
2022-07-25T02:15:51.915Z,4.05
2022-07-25T02:18:18.866Z,3.78
2022-07-25T02:20:45.668Z,3.90
2022-07-25T02:23:12.387Z,3.70
2022-07-25T02:25:38.959Z,4.00
2022-07-25T02:28:05.642Z,4.28
2022-07-25T02:30:32.292Z,3.60
2022-07-25T02:33:00.111Z,3.63
2022-07-25T02:35:27.219Z,3.38
2022-07-25T02:37:53.808Z,3.30
2022-07-25T02:42:39.681Z,4.75
2022-07-25T02:45:07.049Z,2.95
2022-07-25T02:47:33.578Z,3.17
2022-07-25T02:50:00.267Z,3.83
2022-07-25T02:52:26.778Z,4.95
2022-07-25T02:54:53.426Z,3.70
2022-07-25T02:57:20.405Z,3.85
2022-07-25T02:59:46.941Z,3.83
2022-07-25T03:02:13.516Z,3.70
2022-07-25T03:04:40.228Z,3.78
2022-07-25T03:09:31.609Z,3.10
2022-07-25T03:11:58.321Z,3.08
2022-07-25T03:14:24.954Z,4.20
2022-07-25T03:16:51.851Z,3.78
2022-07-25T03:19:18.471Z,3.25
2022-07-25T03:21:46.125Z,4.38
2022-07-25T03:24:12.727Z,4.35
2022-07-25T03:26:39.380Z,3.47
2022-07-25T03:29:06.177Z,3.75
2022-07-25T03:31:32.824Z,3.65
2022-07-25T03:33:59.486Z,4.00
2022-07-25T03:36:26.109Z,3.22
2022-07-25T03:38:52.626Z,3.17
2022-07-25T03:41:19.294Z,2.70
2022-07-25T03:43:45.848Z,3.38
2022-07-25T03:46:12.525Z,3.25
2022-07-25T03:48:39.259Z,3.65
2022-07-25T03:53:19.562Z,3.85
2022-07-25T03:55:46.237Z,3.45
2022-07-25T03:58:12.782Z,4.80
2022-07-25T04:02:55.921Z,3.83
2022-07-25T04:05:22.613Z,4.05
2022-07-25T04:07:49.167Z,3.15
2022-07-25T04:10:15.807Z,3.42
2022-07-25T04:12:42.406Z,2.85
2022-07-25T04:15:10.312Z,2.80
2022-07-25T04:17:37.922Z,2.85
2022-07-25T04:20:07.421Z,3.67
2022-07-25T04:22:34.158Z,3.47
2022-07-25T04:25:00.905Z,3.45
2022-07-25T04:27:27.455Z,3.50
2022-07-25T04:29:53.998Z,3.33
2022-07-25T04:32:23.482Z,3.75
2022-07-25T04:34:52.246Z,3.22
2022-07-25T04:37:18.866Z,2.95
2022-07-25T04:39:45.448Z,3.13
2022-07-25T04:42:11.977Z,3.58
2022-07-25T04:44:38.698Z,3.08
2022-07-25T04:47:05.575Z,3.10
2022-07-25T04:49:32.192Z,3.13
2022-07-25T04:51:58.858Z,2.85
2022-07-25T04:54:25.524Z,2.33
2022-07-25T04:56:52.058Z,3.30
2022-07-25T04:59:18.623Z,3.05
2022-07-25T05:01:45.245Z,2.83
2022-07-25T05:04:11.916Z,3.33
2022-07-25T05:06:38.484Z,3.38
2022-07-25T05:09:05.170Z,2.63
2022-07-25T05:11:31.698Z,2.65
2022-07-25T05:13:58.394Z,3.72
2022-07-25T05:16:25.043Z,3.55
2022-07-25T05:18:51.645Z,3.60
2022-07-25T05:21:18.172Z,3.42
2022-07-25T05:23:44.794Z,3.45
2022-07-25T05:26:11.397Z,3.72
2022-07-25T05:28:38.158Z,3.80
2022-07-25T05:31:05.059Z,4.00
2022-07-25T05:33:31.876Z,4.32
2022-07-25T05:35:58.421Z,2.92
2022-07-25T05:38:25.307Z,3.15
2022-07-25T05:40:52.340Z,3.53
2022-07-25T05:43:19.295Z,4.00
2022-07-25T05:45:47.449Z,3.70
2022-07-25T05:48:17.130Z,3.42
2022-07-25T05:50:43.820Z,3.58
2022-07-25T05:53:10.432Z,2.85
2022-07-25T05:55:40.078Z,3.70
2022-07-25T05:58:09.407Z,3.80
2022-07-25T06:00:36.127Z,3.20
2022-07-25T06:03:02.902Z,3.47
2022-07-25T06:05:29.611Z,4.00
2022-07-25T06:07:56.259Z,4.32
2022-07-25T06:10:23.136Z,3.38
2022-07-25T06:15:19.748Z,4.10
2022-07-25T06:17:49.734Z,3.25
2022-07-25T06:20:16.277Z,4.78
2022-07-25T06:22:42.939Z,3.50
2022-07-25T06:25:09.833Z,4.07
2022-07-25T06:27:38.032Z,4.45
2022-07-25T06:30:06.667Z,3.58
2022-07-25T06:32:41.276Z,4.07
2022-07-25T06:35:08.363Z,3.65
2022-07-25T06:37:37.781Z,3.60
2022-07-25T06:40:04.710Z,3.80
2022-07-25T06:42:34.496Z,3.08
2022-07-25T06:45:05.030Z,3.42
2022-07-25T06:47:35.857Z,3.20
2022-07-25T06:50:04.120Z,3.00
2022-07-25T06:52:34.400Z,2.88
2022-07-25T06:55:01.305Z,2.40
2022-07-25T06:57:28.013Z,3.72
2022-07-25T06:59:54.752Z,3.30
2022-07-25T07:02:21.748Z,2.95
2022-07-25T07:04:48.635Z,2.70
2022-07-25T07:07:16.590Z,2.35
2022-07-25T07:09:43.484Z,2.72
2022-07-25T07:14:39.040Z,2.90
2022-07-25T07:17:06.021Z,3.70
2022-07-25T07:19:32.873Z,3.58
2022-07-25T07:21:59.648Z,2.80
2022-07-25T07:24:26.280Z,2.78
2022-07-25T07:26:54.219Z,3.38
2022-07-25T07:29:21.198Z,3.10
2022-07-25T07:31:48.534Z,2.63
2022-07-25T07:34:16.597Z,3.25
2022-07-25T07:36:43.885Z,2.90
2022-07-25T07:39:10.589Z,3.03
2022-07-25T07:41:37.170Z,2.70
2022-07-25T07:44:05.137Z,2.25
2022-07-25T07:46:31.934Z,2.80
2022-07-25T07:48:58.667Z,3.60
2022-07-25T07:51:25.424Z,2.90
2022-07-25T07:54:10.791Z,3.35
2022-07-25T07:56:37.859Z,2.83
2022-07-25T07:59:05.278Z,2.72
2022-07-25T08:01:32.329Z,2.80
2022-07-25T08:03:59.012Z,2.75
2022-07-25T08:06:27.745Z,2.53
2022-07-25T08:08:54.527Z,1.85
2022-07-25T08:11:21.251Z,2.40
2022-07-25T08:13:47.974Z,1.70
2022-07-25T08:16:17.211Z,1.75
2022-07-25T08:18:43.918Z,2.08
2022-07-25T08:21:13.116Z,1.50
2022-07-25T08:23:39.826Z,1.92
2022-07-25T08:26:07.651Z,1.48
2022-07-25T08:28:34.208Z,2.17
2022-07-25T08:31:00.972Z,1.35
2022-07-25T08:33:28.881Z,1.80
2022-07-25T08:35:56.515Z,2.60
2022-07-25T08:38:25.453Z,1.70
2022-07-25T08:40:53.527Z,1.85
2022-07-25T08:43:20.286Z,1.33
2022-07-25T08:45:49.185Z,1.38
2022-07-25T08:48:26.720Z,1.75
2022-07-25T08:50:56.985Z,1.35
2022-07-25T08:53:33.670Z,1.52
2022-07-25T08:56:04.181Z,2.20
2022-07-25T08:58:35.793Z,1.83
2022-07-25T09:01:02.545Z,2.08
2022-07-25T09:03:29.249Z,1.92
2022-07-25T09:05:55.906Z,2.13
2022-07-25T09:08:22.536Z,1.80
2022-07-25T09:10:51.193Z,2.15
2022-07-25T09:13:19.494Z,2.28
2022-07-25T09:15:52.499Z,2.05
2022-07-25T09:18:24.952Z,2.40
2022-07-25T09:20:53.915Z,2.45
2022-07-25T09:23:39.319Z,1.88
2022-07-25T09:26:08.786Z,2.20
2022-07-25T09:28:49.550Z,2.63
2022-07-25T09:31:19.093Z,1.80
2022-07-25T09:33:51.646Z,2.45
2022-07-25T09:36:18.532Z,2.20
2022-07-25T09:39:00.884Z,1.88
2022-07-25T09:41:38.761Z,2.55
2022-07-25T09:44:19.471Z,2.10
2022-07-25T09:46:46.173Z,1.20
2022-07-25T09:49:15.568Z,2.40
2022-07-25T09:51:42.769Z,1.55
2022-07-25T09:54:10.176Z,2.10
2022-07-25T09:56:37.085Z,2.17
2022-07-25T09:59:07.558Z,2.13
2022-07-25T10:01:54.563Z,2.00
2022-07-25T10:04:24.686Z,1.80
2022-07-25T10:07:07.617Z,1.48
2022-07-25T10:09:34.329Z,1.58
2022-07-25T10:12:09.031Z,1.90
2022-07-25T10:14:37.079Z,1.80
2022-07-25T10:17:04.578Z,2.38
2022-07-25T10:19:52.926Z,1.83
2022-07-25T10:22:46.362Z,2.20
2022-07-25T10:25:19.269Z,1.88
2022-07-25T10:27:52.088Z,1.95
2022-07-25T10:30:26.943Z,2.03
2022-07-25T10:32:56.377Z,1.70
2022-07-25T10:35:22.925Z,2.72
2022-07-25T10:37:51.936Z,1.98
2022-07-25T10:40:49.274Z,1.77
2022-07-25T10:43:21.299Z,1.77
2022-07-25T10:45:58.653Z,1.40
2022-07-25T10:48:31.056Z,1.77
2022-07-25T10:50:59.866Z,1.98
2022-07-25T10:53:38.579Z,1.60
2022-07-25T10:56:12.277Z,1.73
2022-07-25T10:59:08.351Z,1.75
2022-07-25T11:01:38.429Z,2.00
2022-07-25T11:04:14.504Z,1.80
2022-07-25T11:06:42.714Z,1.92
2022-07-25T11:09:27.155Z,2.47
2022-07-25T11:11:59.136Z,1.77
2022-07-25T11:17:20.493Z,1.77
2022-07-25T11:20:00.331Z,1.45
2022-07-25T11:22:28.816Z,1.85
2022-07-25T11:24:57.169Z,1.75
2022-07-25T11:27:26.300Z,1.70
2022-07-25T11:29:53.353Z,2.40
2022-07-25T11:32:20.606Z,1.67
2022-07-25T11:34:50.408Z,1.65
2022-07-25T11:37:18.340Z,1.90
2022-07-25T11:39:46.491Z,1.58
2022-07-25T11:42:18.514Z,1.88
2022-07-25T11:44:48.538Z,1.55
2022-07-25T11:47:33.737Z,2.55
2022-07-25T11:50:02.345Z,2.35
2022-07-25T11:52:32.041Z,1.88
2022-07-25T11:55:14.289Z,1.80
2022-07-25T11:57:44.498Z,1.90
2022-07-25T12:00:17.732Z,2.20
2022-07-25T12:02:45.861Z,1.95
2022-07-25T12:05:15.032Z,1.65
2022-07-25T12:07:41.832Z,1.92
2022-07-25T12:10:12.060Z,1.52
2022-07-25T12:12:42.479Z,1.30
2022-07-25T12:15:16.170Z,1.67
2022-07-25T12:17:43.860Z,1.48
2022-07-25T12:20:18.873Z,1.58
2022-07-25T12:22:48.728Z,1.38
2022-07-25T12:25:15.521Z,2.00
2022-07-25T12:27:42.457Z,1.90
2022-07-25T12:30:10.373Z,2.13
2022-07-25T12:32:37.856Z,1.80
2022-07-25T12:35:09.029Z,1.90
2022-07-25T12:37:36.087Z,2.20
2022-07-25T12:40:04.579Z,2.22
2022-07-25T12:42:32.291Z,1.85
2022-07-25T12:44:59.108Z,1.60
2022-07-25T12:47:27.738Z,1.95
2022-07-25T12:49:54.766Z,1.63
2022-07-25T12:52:21.549Z,2.10
2022-07-25T12:54:48.813Z,1.50
2022-07-25T12:57:17.236Z,1.75
2022-07-25T12:59:43.897Z,1.50
2022-07-25T13:02:10.985Z,1.20
2022-07-25T13:04:38.408Z,1.48
2022-07-25T13:07:05.358Z,1.83
2022-07-25T13:09:32.070Z,1.48
2022-07-25T13:11:59.026Z,1.40
2022-07-25T13:14:26.393Z,1.90
2022-07-25T13:16:53.372Z,1.38
2022-07-25T13:19:20.218Z,1.63
2022-07-25T13:21:46.982Z,1.45
2022-07-25T13:24:13.805Z,1.75
2022-07-25T13:26:40.463Z,1.45
2022-07-25T13:29:12.028Z,1.58
2022-07-25T13:31:41.050Z,1.08
2022-07-25T13:34:08.324Z,1.50
2022-07-25T13:36:36.742Z,1.10
2022-07-25T13:39:04.740Z,1.60
2022-07-25T13:41:32.463Z,1.17
2022-07-25T13:43:59.013Z,1.45
2022-07-25T13:46:25.794Z,1.40
2022-07-25T13:48:52.756Z,1.42
2022-07-25T13:51:19.453Z,1.40
2022-07-25T13:53:46.030Z,1.30
2022-07-25T13:56:15.869Z,1.58
2022-07-25T13:58:43.194Z,1.30
2022-07-25T14:01:11.937Z,1.27
2022-07-25T14:03:38.621Z,1.33
2022-07-25T14:06:08.840Z,1.25
2022-07-25T14:08:35.348Z,1.60
2022-07-25T14:11:02.032Z,1.65
2022-07-25T14:13:28.637Z,1.60
2022-07-25T14:15:55.681Z,1.95
2022-07-25T14:18:23.060Z,1.30
2022-07-25T14:20:50.657Z,2.00
2022-07-25T14:23:17.360Z,1.70
2022-07-25T14:25:43.985Z,1.98
2022-07-25T14:28:10.736Z,1.50
2022-07-25T14:30:38.283Z,1.55
2022-07-25T14:33:04.867Z,1.75
2022-07-25T14:35:32.766Z,1.40
2022-07-25T14:37:59.736Z,1.38
2022-07-25T14:40:27.040Z,1.67
2022-07-25T14:42:53.984Z,1.38
2022-07-25T14:45:21.925Z,1.45
2022-07-25T14:47:48.585Z,1.38
2022-07-25T14:50:15.327Z,1.38
2022-07-25T14:52:42.107Z,1.55
2022-07-25T14:55:09.457Z,1.20
2022-07-25T14:57:36.208Z,1.80
2022-07-25T15:00:05.333Z,1.52
2022-07-25T15:02:32.277Z,1.10
2022-07-25T15:04:58.886Z,1.80
2022-07-25T15:07:25.646Z,1.27
2022-07-25T15:09:52.229Z,1.38
2022-07-25T15:12:26.766Z,1.05
2022-07-25T15:14:57.711Z,0.95
2022-07-25T15:17:29.439Z,1.40
2022-07-25T15:20:06.806Z,1.10
2022-07-25T15:22:33.498Z,1.15
2022-07-25T15:25:45.087Z,1.10
2022-07-25T15:27:46.818Z,1.30
2022-07-25T15:30:16.301Z,1.00
2022-07-25T15:32:43.296Z,1.25
2022-07-25T15:35:10.064Z,1.55
2022-07-25T15:37:37.330Z,1.02
2022-07-25T15:40:04.423Z,1.27
2022-07-25T15:42:32.909Z,1.15
2022-07-25T15:45:30.247Z,1.23
2022-07-25T15:47:50.843Z,1.42
2022-07-25T15:50:18.768Z,1.30
2022-07-25T15:52:46.497Z,1.38
2022-07-25T15:55:13.207Z,1.55
2022-07-25T15:57:39.874Z,1.25
2022-07-25T16:00:08.342Z,1.65
2022-07-25T16:02:35.518Z,1.90
2022-07-25T16:05:03.312Z,1.77
2022-07-25T16:07:29.946Z,1.50
2022-07-25T16:09:57.226Z,1.95
2022-07-25T16:12:28.339Z,2.00
2022-07-25T16:14:55.980Z,1.65
2022-07-25T16:17:23.184Z,1.40
2022-07-25T16:19:49.795Z,1.55
2022-07-25T16:22:16.438Z,2.28
2022-07-25T16:24:43.131Z,2.53
2022-07-25T16:27:10.004Z,1.63
2022-07-25T16:29:37.453Z,2.38
2022-07-25T16:32:05.440Z,1.65
2022-07-25T16:34:32.650Z,1.67
2022-07-25T16:37:00.317Z,2.08
2022-07-25T16:39:27.032Z,2.33
2022-07-25T16:41:53.822Z,2.05
2022-07-25T16:44:20.848Z,1.70
2022-07-25T16:46:47.496Z,2.10
2022-07-25T16:49:15.510Z,1.52
2022-07-25T17:01:19.563Z,2.13
2022-07-25T17:03:46.349Z,2.35
2022-07-25T17:06:44.599Z,3.58
2022-07-25T17:09:11.716Z,2.38
2022-07-25T17:11:38.318Z,2.45
2022-07-25T17:14:04.953Z,2.20
2022-07-25T17:16:32.459Z,2.75
2022-07-25T17:18:59.522Z,2.95
2022-07-25T17:21:26.106Z,2.45
2022-07-25T17:23:53.238Z,2.55
2022-07-25T17:26:20.585Z,3.03
2022-07-25T17:28:47.842Z,3.40
2022-07-25T17:31:14.977Z,3.70
2022-07-25T17:33:41.853Z,2.20
2022-07-25T17:36:09.346Z,2.15
2022-07-25T17:38:37.322Z,2.50
2022-07-25T17:41:04.639Z,1.95
2022-07-25T17:43:31.887Z,2.05
2022-07-25T17:45:58.465Z,2.92
2022-07-25T17:48:25.529Z,2.80
2022-07-25T17:50:52.517Z,3.10
2022-07-25T17:53:19.318Z,3.13
2022-07-25T17:55:47.181Z,3.97
2022-07-25T17:58:14.160Z,4.63
2022-07-25T18:03:03.234Z,6.35
2022-07-25T18:07:49.398Z,4.53
2022-07-25T18:10:17.936Z,4.80
2022-07-25T18:12:44.818Z,4.50
2022-07-25T18:15:12.417Z,4.63
2022-07-25T18:17:41.626Z,4.63
2022-07-25T18:20:09.093Z,4.22
2022-07-25T18:22:38.142Z,3.50
2022-07-25T18:25:06.040Z,3.20
2022-07-25T18:29:52.264Z,3.28
2022-07-25T18:32:19.120Z,2.70
2022-07-25T18:34:45.804Z,3.03
2022-07-25T18:37:12.684Z,3.08
2022-07-25T18:39:39.378Z,2.38
2022-07-25T18:42:06.153Z,2.92
2022-07-25T18:44:32.769Z,3.00
2022-07-25T18:47:01.152Z,2.95
2022-07-25T18:49:28.491Z,2.53
2022-07-25T18:51:55.213Z,2.72
2022-07-25T18:54:22.019Z,2.45
2022-07-25T18:56:48.687Z,2.40
2022-07-25T19:01:40.406Z,2.78
2022-07-25T19:04:07.513Z,2.63
2022-07-25T19:06:34.394Z,2.90
2022-07-25T19:09:01.268Z,2.42
2022-07-25T19:11:27.840Z,2.83
2022-07-25T19:13:54.477Z,3.00
2022-07-25T19:16:24.336Z,2.70
2022-07-25T19:18:51.002Z,3.08
2022-07-25T19:21:17.732Z,3.00
2022-07-25T19:23:50.519Z,2.55
2022-07-25T19:26:19.717Z,3.22
2022-07-25T19:28:47.177Z,2.80
2022-07-25T19:31:14.376Z,2.85
2022-07-25T19:33:41.174Z,2.80
2022-07-25T19:36:08.562Z,2.83
2022-07-25T19:38:35.564Z,2.45
2022-07-25T19:41:02.334Z,2.40
2022-07-25T19:43:29.169Z,2.55
2022-07-25T19:45:55.855Z,2.65
2022-07-25T19:48:23.891Z,2.13
2022-07-25T19:50:51.911Z,3.33
2022-07-25T19:53:18.686Z,2.40
2022-07-25T19:55:45.320Z,3.05
2022-07-25T19:58:14.976Z,2.00
2022-07-25T20:00:41.761Z,3.25
2022-07-25T20:03:09.118Z,2.92
2022-07-25T20:05:36.044Z,2.53
2022-07-25T20:08:02.677Z,2.15
2022-07-25T20:10:29.460Z,2.72
2022-07-25T20:13:01.075Z,2.20
2022-07-25T20:15:28.426Z,2.58
2022-07-25T20:17:56.605Z,2.63
2022-07-25T20:20:23.477Z,2.30
2022-07-25T20:22:50.797Z,2.65
2022-07-25T20:27:42.071Z,2.03
2022-07-25T20:30:10.972Z,2.63
2022-07-25T20:32:37.654Z,2.67
2022-07-25T20:35:05.083Z,3.13
2022-07-25T20:37:32.705Z,2.70
2022-07-25T20:40:00.079Z,2.42
2022-07-25T20:42:26.746Z,2.50
2022-07-25T20:44:53.419Z,2.83
2022-07-25T20:47:19.974Z,2.65
2022-07-25T20:49:46.889Z,2.60
2022-07-25T20:52:13.543Z,2.47
2022-07-25T20:54:42.110Z,2.60
2022-07-25T20:57:08.993Z,2.78
2022-07-25T20:59:35.886Z,2.75
2022-07-25T21:02:03.156Z,3.15
2022-07-25T21:04:29.871Z,2.20
2022-07-25T21:06:56.655Z,3.25
2022-07-25T21:09:23.526Z,2.92
2022-07-25T21:11:50.245Z,2.40
2022-07-25T21:14:16.999Z,2.80
2022-07-25T21:16:43.787Z,3.00
2022-07-25T21:19:10.949Z,2.95
2022-07-25T21:21:37.846Z,3.35
2022-07-25T21:24:06.399Z,3.08
2022-07-25T21:26:33.392Z,2.80
2022-07-25T21:29:00.001Z,2.90
2022-07-25T21:31:26.775Z,2.75
2022-07-25T21:33:53.400Z,3.10
2022-07-25T21:38:38.228Z,3.25
2022-07-25T21:41:06.516Z,2.75
2022-07-25T21:43:33.160Z,2.78
2022-07-25T21:45:59.849Z,2.53
2022-07-25T21:48:45.084Z,3.58
2022-07-25T21:51:13.534Z,2.88
2022-07-25T21:53:47.722Z,2.85
2022-07-25T21:56:15.728Z,2.88
2022-07-25T21:58:42.533Z,3.00
2022-07-25T22:01:09.225Z,2.90
2022-07-25T22:03:35.999Z,2.80
2022-07-25T22:06:02.622Z,2.88
2022-07-25T22:08:29.574Z,2.65
2022-07-25T22:10:56.421Z,2.95
2022-07-25T22:13:25.436Z,2.75
2022-07-25T22:15:52.088Z,3.38
2022-07-25T22:18:19.165Z,3.40
2022-07-25T22:20:45.963Z,2.80
2022-07-25T22:23:12.549Z,2.80
2022-07-25T22:25:39.097Z,2.55
2022-07-25T22:28:05.804Z,2.65
2022-07-25T22:30:36.045Z,2.58
2022-07-25T22:33:02.657Z,3.10
2022-07-25T22:35:29.422Z,2.72
2022-07-25T22:37:56.033Z,3.00
2022-07-25T22:40:22.709Z,2.78
2022-07-25T22:42:49.291Z,2.88
2022-07-25T22:45:15.974Z,2.78
2022-07-25T22:47:42.566Z,2.72
2022-07-25T22:50:09.772Z,2.95
2022-07-25T22:52:36.393Z,2.92
2022-07-25T22:55:03.962Z,2.88
2022-07-25T22:57:37.334Z,3.67
2022-07-25T23:00:07.379Z,2.67
2022-07-25T23:02:34.281Z,2.67
2022-07-25T23:05:00.930Z,3.00
2022-07-25T23:07:27.704Z,3.00
2022-07-25T23:09:54.581Z,2.97
2022-07-25T23:12:21.212Z,3.50
2022-07-25T23:14:47.829Z,3.22
2022-07-25T23:17:17.692Z,3.28
2022-07-25T23:19:45.497Z,3.25
2022-07-25T23:22:12.365Z,3.63
2022-07-25T23:24:39.120Z,3.15
2022-07-25T23:27:06.364Z,2.38
2022-07-25T23:29:33.158Z,3.17
2022-07-25T23:31:59.890Z,3.30
2022-07-25T23:34:26.540Z,3.35
2022-07-25T23:36:53.389Z,2.72
2022-07-25T23:39:20.110Z,2.97
2022-07-25T23:44:16.477Z,2.85
2022-07-25T23:46:43.397Z,2.80
2022-07-25T23:49:11.922Z,3.63
2022-07-25T23:51:39.354Z,2.72
2022-07-25T23:54:05.968Z,3.08
2022-07-25T23:56:32.698Z,2.80
2022-07-25T23:58:59.375Z,3.20
